CheckWX is a tool to help pilots better visualize weather data.  It is not intended as a substitute for an official pre-flight weather briefing.

18:03:22 UTC

LBBG TAF
Burgas Airport
Burgas, Bulgaria
TAF LBBG 241700Z 2418/2518 VRB04KT CAVOK TEMPO 2501/2506 5000 BR NSC BECMG 2509/2511 12012KT

Mar-24@
18:00 UTC

Mar-24 @ 18:00 UTC

Mar-25@
09:00 UTC

Mar-25 @ 09:00 UTC

TAF LBBG 241700Z 2418/2518 VRB04KT CAVOK
Wind
  • Variable at 4 KTS
Conditions
No significant weather
Cloud Levels
  • No significant clouds

Mar-25@
01:00 UTC

Mar-25 @ 01:00 UTC

Mar-25@
06:00 UTC

Mar-25 @ 06:00 UTC

TEMPO 2501/2506 5000 BR NSC

Temporary

Temporary Changes expected for less than half the time period

Conditions
Mist
Cloud Levels
  • No significant clouds

Mar-25@
09:00 UTC

Mar-25 @ 09:00 UTC

Mar-25@
18:00 UTC

Mar-25 @ 18:00 UTC

BECMG 2509/2511 12012KT

Becoming

Becoming Conditions expected by Mon, Mar 25, 2019 @ 11:00 UTC

Wind
  • 120° at 12 KTS
Conditions
No significant weather
Cloud Levels
  • No significant clouds